Time;durP1;ratioP1;P1;durP2;ratioP2;P2;SDS_P1;SDS_P2;PMS_P1;PMS_P2;Temp;Humidity;BMP_temperature;BMP_pressure;BME280_temperature;BME280_humidity;BME280_pressure;Samples;Min_cycle;Max_cycle;Signal;HPM_P1;HPM_P2
2021/12/10 00:00:43;;;;;;;12.02;6.75;;;5.70;99.90;;;3.42;100.00;98896.72;5050311;28;20049;-88
2021/12/10 00:03:16;;;;;;;10.60;6.80;;;5.60;99.90;;;3.42;100.00;98891.34;5048772;28;20068;-88
2021/12/10 00:05:49;;;;;;;13.48;6.63;;;5.60;99.90;;;3.40;100.00;98879.94;5031914;28;20842;-88
2021/12/10 00:08:18;;;;;;;9.98;6.57;;;5.60;99.90;;;3.35;100.00;98874.28;5049951;28;20045;-87
2021/12/10 00:10:50;;;;;;;10.07;6.60;;;5.60;99.90;;;3.31;100.00;98856.81;5045255;28;20047;-88
2021/12/10 00:13:19;;;;;;;15.57;7.22;;;5.60;99.90;;;3.25;100.00;98857.53;5030497;28;20147;-87
2021/12/10 00:15:47;;;;;;;12.02;7.40;;;5.60;99.90;;;3.28;100.00;98857.19;5033043;28;20041;-87
2021/12/10 00:18:19;;;;;;;12.43;7.35;;;5.60;99.90;;;3.27;100.00;98853.63;5033096;28;20452;-87
2021/12/10 00:20:47;;;;;;;;;;;5.60;99.90;;;3.28;100.00;98847.25;5045470;28;20098;-87
2021/12/10 00:23:19;;;;;;;10.52;6.78;;;5.50;99.90;;;3.33;100.00;98850.25;5052370;28;20296;-87
2021/12/10 00:25:51;;;;;;;12.32;7.35;;;5.50;99.90;;;3.36;100.00;98838.28;5052588;28;20045;-87
2021/12/10 00:28:25;;;;;;;13.50;7.80;;;5.50;99.90;;;3.35;100.00;98831.25;5052702;28;20048;-87
2021/12/10 00:31:04;;;;;;;12.85;7.40;;;5.50;99.90;;;3.41;100.00;98827.84;5039609;28;20041;-88
2021/12/10 00:33:39;;;;;;;12.13;7.75;;;5.50;99.90;;;3.46;100.00;98825.44;5033162;28;20049;-87
2021/12/10 00:36:08;;;;;;;11.15;7.55;;;5.50;99.90;;;3.48;100.00;98826.13;5032525;28;20136;-87
2021/12/10 00:38:37;;;;;;;13.73;7.55;;;5.50;99.90;;;3.51;100.00;98814.16;5049248;28;20073;-87
2021/12/10 00:41:06;;;;;;;14.57;7.95;;;5.60;99.90;;;3.55;100.00;98804.69;5046462;28;20462;-88
2021/12/10 00:43:36;;;;;;;14.88;8.15;;;5.60;99.90;;;3.56;100.00;98803.69;5052630;28;20068;-88
2021/12/10 00:46:04;;;;;;;16.50;7.50;;;5.60;99.90;;;3.63;100.00;98806.47;5052683;28;20076;-88
2021/12/10 00:48:32;;;;;;;11.95;6.95;;;5.60;99.90;;;3.59;100.00;98795.25;5052329;28;20079;-88
2021/12/10 00:51:01;;;;;;;15.35;7.93;;;5.60;99.90;;;3.64;100.00;98792.03;5051327;28;20072;-86
2021/12/10 00:53:29;;;;;;;14.43;8.00;;;5.60;99.90;;;3.69;100.00;98778.84;5052395;28;20047;-87
2021/12/10 00:55:56;;;;;;;13.18;7.40;;;5.60;99.90;;;3.70;100.00;98785.91;5052219;28;20151;-87
2021/12/10 00:58:25;;;;;;;14.40;7.15;;;5.60;99.90;;;3.71;100.00;98777.66;5052148;28;20057;-87
2021/12/10 01:00:58;;;;;;;13.05;7.70;;;5.70;99.90;;;3.72;100.00;98784.69;5039479;28;20053;-87
2021/12/10 01:03:34;;;;;;;15.82;7.78;;;5.70;99.90;;;3.77;100.00;98778.78;5032189;28;20139;-88
2021/12/10 01:06:05;;;;;;;14.30;7.82;;;5.70;99.90;;;3.79;100.00;98763.28;5031930;28;20513;-87
2021/12/10 01:08:34;;;;;;;;;;;5.70;99.90;;;3.81;100.00;98766.63;5032723;28;20069;-87
2021/12/10 01:11:07;;;;;;;12.10;7.03;;;5.70;99.90;;;3.78;100.00;98766.16;5045115;28;19946;-88
2021/12/10 01:13:38;;;;;;;13.02;7.30;;;5.70;99.90;;;3.79;100.00;98773.19;5051849;28;20044;-88
2021/12/10 01:23:40;;;;;;;;;;;5.70;99.90;;;3.82;100.00;98779.03;5052339;28;20048;-88
2021/12/10 01:25:09;;;;;;;13.10;6.43;;;5.70;99.90;;;3.84;100.00;98749.25;4971475;28;20125;-88
2021/12/10 01:27:41;;;;;;;12.38;6.25;;;5.70;99.90;;;3.91;100.00;98745.63;4987874;28;20050;-87
2021/12/10 01:30:19;;;;;;;11.55;6.40;;;5.80;99.90;;;3.90;100.00;98744.00;5022782;28;20135;-87
2021/12/10 01:32:53;;;;;;;14.38;6.25;;;5.70;99.90;;;3.85;100.00;98735.63;5051170;28;20048;-88
2021/12/10 01:35:26;;;;;;;11.80;6.28;;;5.80;99.90;;;3.86;100.00;98734.59;5050690;28;20041;-87
2021/12/10 01:37:57;;;;;;;13.07;6.53;;;5.70;99.90;;;3.82;100.00;98730.59;5050747;28;20097;-87
2021/12/10 01:40:27;;;;;;;11.02;6.43;;;5.80;99.90;;;3.81;100.00;98726.25;5040560;28;20056;-88
2021/12/10 01:43:05;;;;;;;14.98;6.97;;;5.80;99.90;;;3.82;100.00;98719.00;5051076;28;20059;-87
2021/12/10 01:45:36;;;;;;;14.82;7.35;;;5.80;99.90;;;3.83;100.00;98716.16;5051397;28;20044;-87
2021/12/10 01:48:09;;;;;;;;;;;5.70;99.90;;;3.84;100.00;98717.78;5051529;28;20466;-87
2021/12/10 01:50:37;;;;;;;12.73;6.13;;;5.80;99.90;;;3.83;100.00;98712.63;5051695;28;20273;-87
2021/12/10 01:53:09;;;;;;;13.82;6.00;;;5.70;99.90;;;3.77;100.00;98716.91;5051210;28;20049;-88
2021/12/10 01:55:41;;;;;;;10.68;5.30;;;5.70;99.90;;;3.70;100.00;98715.97;5051615;28;20052;-87
2021/12/10 01:58:14;;;;;;;11.10;6.00;;;5.70;99.90;;;3.68;100.00;98704.53;5051172;28;20048;-86
2021/12/10 02:00:48;;;;;;;10.52;6.32;;;5.70;99.90;;;3.60;100.00;98699.22;5051239;28;20144;-88
2021/12/10 02:03:17;;;;;;;13.07;6.28;;;5.60;99.90;;;3.49;100.00;98697.84;5050732;28;20148;-87
2021/12/10 02:05:45;;;;;;;10.23;5.43;;;5.60;99.90;;;3.51;100.00;98690.44;5050745;28;20591;-87
2021/12/10 02:08:12;;;;;;;15.68;6.57;;;5.60;99.90;;;3.53;100.00;98686.53;5048466;28;20075;-87
2021/12/10 02:10:40;;;;;;;15.30;6.32;;;5.60;99.90;;;3.50;100.00;98688.75;5030954;28;20080;-88
2021/12/10 02:13:07;;;;;;;13.07;6.47;;;5.50;99.90;;;3.46;100.00;98688.28;5030696;28;20064;-87
2021/12/10 02:15:35;;;;;;;11.38;6.05;;;5.50;99.90;;;3.45;100.00;98686.63;5030818;28;20110;-88
2021/12/10 02:18:02;;;;;;;15.00;6.40;;;5.50;99.90;;;3.42;100.00;98686.97;5029719;28;20134;-87
2021/12/10 02:20:37;;;;;;;14.65;6.20;;;5.50;99.90;;;3.41;100.00;98688.03;5012394;28;20140;-87
2021/12/10 02:23:08;;;;;;;9.82;6.15;;;5.40;99.90;;;3.42;100.00;98676.22;5011072;28;20057;-88
2021/12/10 02:25:37;;;;;;;12.55;6.28;;;5.50;99.90;;;3.41;100.00;98676.41;5027721;28;20069;-87
2021/12/10 02:28:08;;;;;;;11.40;6.68;;;5.60;99.90;;;3.35;100.00;98674.47;5047444;28;20084;-87
2021/12/10 02:30:37;;;;;;;10.05;6.13;;;5.40;99.90;;;3.32;100.00;98662.22;5030728;28;20099;-87
2021/12/10 02:33:04;;;;;;;10.38;5.75;;;5.40;99.90;;;3.30;100.00;98667.78;5030707;28;20107;-87
2021/12/10 02:35:32;;;;;;;12.25;6.18;;;5.40;99.90;;;3.25;100.00;98654.06;5060942;22;20084;-82
2021/12/10 02:38:01;;;;;;;11.27;6.10;;;5.40;99.90;;;3.26;100.00;98644.16;5017767;28;20045;-82
2021/12/10 02:40:32;;;;;;;12.32;5.95;;;5.40;99.90;;;3.27;100.00;98645.81;5020190;28;20069;-82
2021/12/10 02:43:06;;;;;;;12.30;5.70;;;5.40;99.90;;;3.25;100.00;98639.78;5028083;28;20041;-85
2021/12/10 02:45:33;;;;;;;10.32;5.90;;;5.30;99.90;;;3.24;100.00;98638.13;5028390;28;20473;-85
2021/12/10 02:48:01;;;;;;;13.98;6.00;;;5.30;99.90;;;3.20;100.00;98636.81;5017794;28;20058;-84
2021/12/10 02:50:31;;;;;;;13.13;6.32;;;5.30;99.90;;;3.20;100.00;98623.38;5032648;28;20077;-84
2021/12/10 02:52:58;;;;;;;12.98;6.10;;;5.30;99.90;;;3.16;100.00;98619.38;5031988;28;20131;-85
2021/12/10 02:55:27;;;;;;;14.60;6.03;;;5.30;99.90;;;3.10;100.00;98612.88;5032498;28;20041;-84
2021/12/10 02:58:00;;;;;;;12.65;6.00;;;5.20;99.90;;;3.05;100.00;98604.56;5032315;28;20577;-85
2021/12/10 03:00:33;;;;;;;14.05;5.53;;;5.30;99.90;;;3.03;100.00;98593.97;5032144;28;20100;-84
2021/12/10 03:03:00;;;;;;;12.07;5.75;;;5.20;99.90;;;3.02;100.00;98597.69;5032107;28;20041;-84
2021/12/10 03:05:28;;;;;;;13.13;5.22;;;5.20;99.90;;;3.04;100.00;98586.75;5032076;28;20033;-84
2021/12/10 03:07:56;;;;;;;10.60;5.25;;;5.20;99.90;;;3.05;100.00;98588.44;5032309;28;20073;-84
2021/12/10 03:10:27;;;;;;;11.82;5.05;;;5.20;99.90;;;3.07;100.00;98576.47;5032134;28;20045;-85
2021/12/10 03:12:57;;;;;;;14.52;5.50;;;5.20;99.90;;;3.04;100.00;98562.56;5032033;28;20128;-84
2021/12/10 03:15:27;;;;;;;16.02;5.13;;;5.20;99.90;;;3.08;100.00;98567.38;5030808;28;20512;-84
2021/12/10 03:17:56;;;;;;;14.02;4.93;;;5.20;99.90;;;3.08;100.00;98561.16;5032254;28;20037;-85
2021/12/10 03:20:29;;;;;;;15.95;4.97;;;5.20;99.90;;;3.08;100.00;98551.25;5031894;28;20144;-84
2021/12/10 03:22:57;;;;;;;10.50;4.10;;;5.20;99.90;;;3.09;100.00;98547.56;5031824;28;20056;-82
2021/12/10 03:25:24;;;;;;;8.95;4.05;;;5.20;99.90;;;3.11;100.00;98545.50;5014079;28;20124;-81
2021/12/10 03:27:52;;;;;;;10.93;3.70;;;5.20;99.90;;;3.08;100.00;98535.13;5031879;28;20107;-82
2021/12/10 03:30:25;;;;;;;9.23;4.00;;;5.30;99.90;;;3.04;100.00;98531.16;5031675;28;20073;-82
2021/12/10 03:32:53;;;;;;;9.35;3.95;;;5.20;99.90;;;3.05;100.00;98530.13;5031443;28;20128;-82
2021/12/10 03:35:25;;;;;;;9.65;3.65;;;5.10;99.90;;;3.02;100.00;98530.50;5031943;28;20049;-82
2021/12/10 03:37:53;;;;;;;8.10;3.83;;;5.10;99.90;;;2.97;100.00;98522.19;5030711;28;20505;-82
2021/12/10 03:40:21;;;;;;;10.85;4.32;;;5.10;99.90;;;2.92;100.00;98519.22;5040093;28;20064;-82
2021/12/10 03:42:50;;;;;;;10.35;3.80;;;5.10;99.90;;;2.86;100.00;98519.94;5051485;28;20041;-82
2021/12/10 03:45:20;;;;;;;9.40;3.53;;;5.10;99.90;;;2.84;100.00;98522.00;5050489;28;20049;-82
2021/12/10 03:47:47;;;;;;;8.98;3.70;;;5.10;99.90;;;2.87;100.00;98522.44;5051871;28;20079;-81
2021/12/10 03:50:24;;;;;;;13.52;4.00;;;5.00;99.90;;;2.87;100.00;98516.22;5034510;28;20052;-81
2021/12/10 03:52:51;;;;;;;11.75;3.97;;;5.00;99.90;;;2.84;100.00;98505.88;5031455;28;20065;-82
2021/12/10 03:55:21;;;;;;;12.52;3.72;;;5.00;99.90;;;2.88;100.00;98504.47;5031578;28;20136;-82
2021/12/10 03:57:49;;;;;;;10.55;3.42;;;5.00;99.90;;;2.85;100.00;98491.41;5031007;28;20050;-81
2021/12/10 04:00:21;;;;;;;12.30;3.40;;;5.00;99.90;;;2.77;100.00;98488.81;5031326;28;20041;-82
2021/12/10 04:02:49;;;;;;;13.48;3.60;;;5.00;99.90;;;2.75;100.00;98480.94;5031456;28;20513;-82
2021/12/10 04:05:17;;;;;;;9.10;3.25;;;5.00;99.90;;;2.76;100.00;98487.13;5031575;28;20053;-82
2021/12/10 04:07:45;;;;;;;9.40;3.47;;;5.00;99.90;;;2.69;100.00;98477.13;5031456;28;20037;-81
2021/12/10 04:10:15;;;;;;;9.23;3.05;;;4.90;99.90;;;2.72;100.00;98476.78;5031252;28;20133;-81
2021/12/10 04:12:42;;;;;;;8.60;3.05;;;4.90;99.90;;;2.73;100.00;98473.06;5031298;28;20153;-81
2021/12/10 04:15:11;;;;;;;9.77;3.20;;;4.90;99.90;;;2.78;100.00;98463.59;5031262;28;20045;-81
2021/12/10 04:17:39;;;;;;;11.52;3.42;;;4.90;99.90;;;2.83;100.00;98466.59;5031344;28;20128;-81
2021/12/10 04:20:10;;;;;;;10.95;3.30;;;4.90;99.90;;;2.82;100.00;98465.75;5030782;28;20163;-82
2021/12/10 04:22:37;;;;;;;13.15;3.25;;;4.90;99.90;;;2.80;100.00;98453.50;5030806;28;20091;-84
2021/12/10 04:25:08;;;;;;;7.43;2.40;;;4.90;99.90;;;2.85;100.00;98453.78;5030941;28;20045;-84
2021/12/10 04:27:36;;;;;;;;;;;4.90;99.90;;;2.83;100.00;98462.03;5026814;28;20046;-84
2021/12/10 04:30:10;;;;;;;8.98;2.85;;;4.90;99.90;;;2.81;100.00;98455.19;5024768;28;20015;-81
2021/12/10 04:32:39;;;;;;;14.63;2.65;;;4.90;99.90;;;2.82;100.00;98454.16;5029450;28;20746;-81
2021/12/10 04:35:09;;;;;;;9.52;2.60;;;4.90;99.90;;;2.85;100.00;98448.41;5010976;28;20121;-82
2021/12/10 04:37:36;;;;;;;12.68;2.78;;;4.90;99.90;;;2.86;100.00;98439.34;5011030;28;20119;-81
2021/12/10 04:40:07;;;;;;;9.23;2.50;;;4.90;99.90;;;2.88;100.00;98450.75;5023139;28;20037;-81
2021/12/10 04:42:34;;;;;;;7.68;2.08;;;4.90;99.90;;;2.90;100.00;98440.66;5036164;28;20069;-81
2021/12/10 04:45:05;;;;;;;12.15;2.58;;;4.90;99.90;;;2.92;100.00;98435.91;5030743;28;20081;-81
2021/12/10 04:47:33;;;;;;;14.25;2.38;;;4.90;99.90;;;2.81;100.00;98425.66;5027370;28;20120;-81
2021/12/10 04:50:04;;;;;;;10.90;2.95;;;4.90;99.90;;;2.82;100.00;98438.03;5030638;28;20506;-82
2021/12/10 04:52:32;;;;;;;;;;;4.90;99.90;;;2.79;100.00;98438.44;5029233;28;20089;-81
2021/12/10 04:54:59;;;;;;;14.45;2.30;;;4.90;99.90;;;2.77;100.00;98432.41;5030506;28;20327;-81
2021/12/10 04:57:27;;;;;;;9.13;2.10;;;4.90;99.90;;;2.82;100.00;98427.28;5030578;28;20117;-81
2021/12/10 04:59:54;;;;;;;9.60;2.05;;;4.90;99.90;;;2.87;100.00;98431.09;5030455;28;20069;-81
2021/12/10 05:02:21;;;;;;;13.68;2.50;;;4.90;99.90;;;2.86;100.00;98425.94;5029856;28;20257;-81
2021/12/10 05:04:49;;;;;;;14.00;2.47;;;4.90;99.90;;;2.85;100.00;98419.69;5030144;28;20106;-81
2021/12/10 05:07:18;;;;;;;9.20;2.42;;;4.90;99.90;;;2.87;100.00;98422.19;5030212;28;20045;-81
2021/12/10 05:09:46;;;;;;;8.77;2.15;;;4.90;99.90;;;2.85;100.00;98403.56;5029353;28;20041;-81
2021/12/10 05:12:14;;;;;;;5.00;2.15;;;4.90;99.90;;;2.84;100.00;98396.56;5029573;28;20124;-80
2021/12/10 05:14:41;;;;;;;10.48;2.33;;;4.90;99.90;;;2.80;100.00;98380.97;5030007;28;20064;-79
2021/12/10 05:17:10;;;;;;;11.13;2.35;;;4.80;99.90;;;2.77;100.00;98381.38;5030143;28;20115;-79
2021/12/10 05:19:41;;;;;;;10.15;2.17;;;4.80;99.90;;;2.78;100.00;98383.88;5030126;28;20053;-80
2021/12/10 05:22:10;;;;;;;;;;;4.80;99.90;;;2.79;100.00;98365.91;5030042;28;20053;-80
2021/12/10 05:24:39;;;;;;;7.28;1.73;;;4.80;99.90;;;2.83;100.00;98369.88;5029907;28;19971;-80
2021/12/10 05:27:06;;;;;;;13.07;2.35;;;4.80;99.90;;;2.80;100.00;98372.94;5029768;28;20051;-86
2021/12/10 05:29:34;;;;;;;7.70;2.10;;;4.80;99.90;;;2.76;100.00;98358.22;5029860;28;20622;-80
2021/12/10 05:32:03;;;;;;;11.85;2.17;;;4.90;99.90;;;2.74;100.00;98355.72;5029170;28;20045;-81
2021/12/10 05:34:30;;;;;;;10.63;2.35;;;4.80;99.90;;;2.79;100.00;98350.63;5029650;28;20048;-80
2021/12/10 05:36:59;;;;;;;9.30;2.05;;;4.80;99.90;;;2.78;100.00;98348.13;5029646;28;20076;-80
2021/12/10 05:39:27;;;;;;;6.93;2.22;;;4.80;99.90;;;2.81;100.00;98342.38;5030575;28;20049;-81
2021/12/10 05:41:56;;;;;;;13.70;2.33;;;4.80;99.90;;;2.82;100.00;98331.44;5036789;28;20099;-80
2021/12/10 05:44:24;;;;;;;6.82;2.10;;;4.80;99.90;;;2.79;100.00;98334.50;5028921;28;20045;-80
2021/12/10 05:46:51;;;;;;;16.77;2.55;;;4.80;99.90;;;2.80;100.00;98329.94;5028995;28;20128;-80
2021/12/10 05:49:18;;;;;;;7.38;2.30;;;4.80;99.90;;;2.69;100.00;98321.38;5029565;28;20099;-80
2021/12/10 05:51:46;;;;;;;8.73;2.03;;;4.80;99.90;;;2.63;100.00;98322.13;5029256;28;20076;-80
2021/12/10 05:54:13;;;;;;;12.57;2.53;;;4.70;99.90;;;2.66;100.00;98315.53;5011397;28;20156;-80
2021/12/10 05:56:41;;;;;;;12.73;2.70;;;4.70;99.90;;;2.64;100.00;98304.97;5011284;28;20490;-80
2021/12/10 05:59:09;;;;;;;12.40;2.33;;;4.80;99.90;;;2.69;100.00;98299.88;5029272;28;20045;-80
2021/12/10 06:01:37;;;;;;;10.82;2.40;;;4.80;99.90;;;2.64;100.00;98304.16;5028952;28;20041;-80
2021/12/10 06:04:05;;;;;;;7.75;2.60;;;4.80;99.90;;;2.67;100.00;98301.94;5029245;28;20049;-81
2021/12/10 06:06:34;;;;;;;10.05;2.15;;;4.80;99.90;;;2.59;100.00;98295.81;5028622;28;20072;-80
2021/12/10 06:09:07;;;;;;;14.15;2.58;;;4.80;99.90;;;2.60;100.00;98294.81;5029267;28;20041;-79
2021/12/10 06:11:35;;;;;;;7.13;2.58;;;4.90;99.90;;;2.65;100.00;98295.91;5028374;28;20129;-79
2021/12/10 06:14:03;;;;;;;9.63;3.28;;;4.80;99.90;;;2.66;100.00;98299.44;5028514;28;20099;-80
2021/12/10 06:16:32;;;;;;;12.52;3.05;;;4.80;99.90;;;2.68;100.00;98298.22;5028036;28;20107;-81
2021/12/10 06:18:59;;;;;;;8.73;3.47;;;4.80;99.90;;;2.71;100.00;98292.47;5029148;28;20124;-80
2021/12/10 06:21:28;;;;;;;9.98;2.85;;;4.80;99.90;;;2.71;100.00;98287.09;5028067;28;20041;-80
2021/12/10 06:23:55;;;;;;;9.77;2.95;;;4.80;99.90;;;2.71;100.00;98281.72;5028990;28;20045;-80
2021/12/10 06:26:23;;;;;;;12.93;3.05;;;4.80;99.90;;;2.71;100.00;98280.91;5028814;28;20120;-81
2021/12/10 06:28:50;;;;;;;11.60;3.03;;;4.80;99.90;;;2.71;100.00;98279.03;5029119;28;20045;-78
2021/12/10 06:31:20;;;;;;;12.15;3.00;;;4.70;99.90;;;2.65;100.00;98277.13;5028617;28;20420;-82
2021/12/10 06:33:50;;;;;;;11.32;3.05;;;4.70;99.90;;;2.65;100.00;98271.75;5005498;28;20092;-84
2021/12/10 06:36:19;;;;;;;13.13;2.78;;;4.70;99.90;;;2.73;100.00;98268.94;5021393;28;20080;-83
2021/12/10 06:38:48;;;;;;;9.57;2.60;;;4.70;99.90;;;2.79;100.00;98271.91;5023452;28;20124;-82
2021/12/10 06:41:17;;;;;;;12.00;3.58;;;4.70;99.90;;;2.74;100.00;98267.94;5023279;28;20041;-82
2021/12/10 06:43:45;;;;;;;7.70;2.58;;;4.70;99.90;;;2.72;100.00;98261.94;5007318;28;20050;-82
2021/12/10 06:46:13;;;;;;;8.80;2.70;;;4.80;99.90;;;2.68;100.00;98265.97;5008912;28;20653;-82
2021/12/10 06:48:41;;;;;;;10.23;3.30;;;4.70;99.90;;;2.69;100.00;98272.22;5008932;28;20073;-82
2021/12/10 06:51:16;;;;;;;10.50;2.97;;;4.70;99.90;;;2.66;100.00;98262.66;4991055;28;20046;-82
2021/12/10 06:53:46;;;;;;;12.02;2.55;;;4.70;99.90;;;2.69;100.00;98267.66;5008928;28;20045;-82
2021/12/10 06:56:15;;;;;;;9.98;3.05;;;4.70;99.90;;;2.71;100.00;98265.63;5007195;28;20494;-82
2021/12/10 06:58:43;;;;;;;11.70;2.90;;;4.70;99.90;;;2.72;100.00;98271.81;5008974;28;20084;-82
2021/12/10 07:01:18;;;;;;;9.57;3.15;;;4.70;99.90;;;2.77;100.00;98271.25;5008641;28;20038;-81
2021/12/10 07:03:46;;;;;;;13.75;3.70;;;4.70;99.90;;;2.76;100.00;98269.59;5009027;28;20057;-82
2021/12/10 07:06:15;;;;;;;11.93;3.13;;;4.70;99.90;;;2.71;100.00;98276.34;5015687;28;20141;-82
2021/12/10 07:08:45;;;;;;;9.57;2.70;;;4.70;99.90;;;2.74;100.00;98267.94;5044386;28;20145;-78
2021/12/10 07:11:15;;;;;;;14.95;3.30;;;4.70;99.90;;;2.79;100.00;98271.91;5043884;28;20068;-79
2021/12/10 07:13:48;;;;;;;7.28;2.78;;;4.70;99.90;;;2.81;100.00;98275.22;5029502;28;20556;-79
2021/12/10 07:16:17;;;;;;;13.65;2.90;;;4.70;99.90;;;2.80;100.00;98268.16;5009211;28;20049;-79
2021/12/10 07:18:45;;;;;;;16.27;3.45;;;4.70;99.90;;;2.73;100.00;98262.75;5046078;28;20040;-79
2021/12/10 07:21:14;;;;;;;12.10;2.53;;;4.70;99.90;;;2.72;100.00;98261.94;5048231;28;20110;-79
2021/12/10 07:23:43;;;;;;;12.35;3.05;;;4.70;99.90;;;2.72;100.00;98267.28;5020202;28;20041;-79
2021/12/10 07:26:12;;;;;;;8.07;2.70;;;4.70;99.90;;;2.73;100.00;98255.50;5008382;28;20046;-80
2021/12/10 07:28:40;;;;;;;13.98;3.00;;;4.70;99.90;;;2.74;100.00;98254.50;5026436;28;20799;-80
2021/12/10 07:31:08;;;;;;;9.60;2.75;;;4.70;99.90;;;2.76;100.00;98258.84;5047923;28;20040;-80
2021/12/10 07:33:36;;;;;;;9.15;2.65;;;4.70;99.90;;;2.79;100.00;98250.41;5050118;28;20116;-79
2021/12/10 07:36:05;;;;;;;11.52;2.78;;;4.70;99.90;;;2.78;100.00;98248.72;5052063;28;20106;-79
2021/12/10 07:38:35;;;;;;;8.02;2.58;;;4.70;99.90;;;2.76;100.00;98251.63;5029848;28;20421;-79
2021/12/10 07:41:03;;;;;;;6.70;2.17;;;4.70;99.90;;;2.77;100.00;98252.47;5036992;28;20038;-79
2021/12/10 07:43:30;;;;;;;11.93;2.88;;;4.70;99.90;;;2.73;100.00;98258.19;5031826;28;20080;-79
2021/12/10 07:45:58;;;;;;;11.77;2.28;;;4.70;99.90;;;2.81;100.00;98259.09;5031690;28;20045;-79
2021/12/10 07:48:27;;;;;;;12.18;2.60;;;4.70;99.90;;;2.81;100.00;98248.38;5046069;28;20048;-79
2021/12/10 07:50:59;;;;;;;11.57;2.28;;;4.80;99.90;;;2.85;100.00;98238.91;5051543;28;20052;-79
2021/12/10 07:53:30;;;;;;;8.90;2.30;;;4.90;99.90;;;2.88;100.00;98251.97;5051355;28;20045;-79
2021/12/10 07:56:01;;;;;;;9.95;2.15;;;4.80;99.90;;;2.87;100.00;98244.91;5051602;28;20044;-79
2021/12/10 07:58:30;;;;;;;10.52;2.30;;;4.80;99.90;;;2.91;100.00;98238.97;5045212;28;20052;-79
2021/12/10 08:00:58;;;;;;;10.52;2.67;;;4.80;99.90;;;2.92;100.00;98255.91;5051280;28;20033;-79
2021/12/10 08:03:25;;;;;;;15.77;2.75;;;4.80;99.80;;;2.93;100.00;98257.56;5051480;28;20049;-79
2021/12/10 08:05:53;;;;;;;8.55;2.60;;;4.80;99.90;;;2.94;100.00;98256.56;5033807;28;20053;-79
2021/12/10 08:08:21;;;;;;;10.20;2.40;;;4.80;99.90;;;2.93;100.00;98254.88;5045226;28;20041;-79
2021/12/10 08:10:49;;;;;;;12.80;3.30;;;4.80;99.90;;;2.97;100.00;98253.50;5032178;28;20464;-79
2021/12/10 08:13:22;;;;;;;7.85;2.33;;;4.80;99.90;;;2.98;100.00;98243.56;5025215;28;20046;-79
2021/12/10 08:15:50;;;;;;;12.93;2.05;;;4.90;99.90;;;3.02;100.00;98250.22;5010104;28;20200;-79
2021/12/10 08:18:17;;;;;;;13.23;2.75;;;4.90;99.90;;;3.04;100.00;98254.38;5042080;28;20079;-79
2021/12/10 08:20:45;;;;;;;10.32;2.63;;;4.80;99.90;;;3.08;100.00;98252.13;5051014;28;20124;-79
2021/12/10 08:23:12;;;;;;;10.23;2.40;;;4.90;99.90;;;3.04;100.00;98259.75;5031009;28;20069;-79
2021/12/10 08:25:40;;;;;;;9.40;2.22;;;4.90;99.90;;;3.06;100.00;98251.50;5011264;28;20084;-79
2021/12/10 08:28:08;;;;;;;10.68;2.85;;;4.90;99.60;;;3.12;100.00;98254.25;5039029;28;20072;-79
2021/12/10 08:30:39;;;;;;;8.63;2.10;;;4.90;99.60;;;3.15;100.00;98254.91;5049510;28;20049;-79
2021/12/10 08:33:12;;;;;;;10.30;2.42;;;4.90;99.90;;;3.13;100.00;98239.78;5050399;28;20045;-79
2021/12/10 08:35:42;;;;;;;14.02;2.60;;;5.00;99.90;;;3.15;100.00;98233.41;5050851;28;20041;-79
2021/12/10 08:38:11;;;;;;;14.27;3.08;;;4.90;99.90;;;3.18;100.00;98241.06;5046510;28;20041;-79
2021/12/10 08:40:48;;;;;;;10.00;2.30;;;5.00;99.70;;;3.16;100.00;98230.53;5039940;28;20107;-79
2021/12/10 08:43:16;;;;;;;8.73;2.50;;;5.00;99.80;;;3.17;100.00;98234.03;5030316;28;20073;-79
2021/12/10 08:45:46;;;;;;;12.02;2.60;;;5.00;99.40;;;3.20;100.00;98236.31;5017353;28;20552;-79
2021/12/10 08:48:13;;;;;;;8.48;2.05;;;5.00;99.40;;;3.21;100.00;98233.44;5040431;28;20111;-79
2021/12/10 08:50:45;;;;;;;12.63;2.53;;;5.00;99.70;;;3.24;100.00;98224.19;5050517;28;20069;-80
2021/12/10 08:53:13;;;;;;;16.85;3.38;;;5.00;99.80;;;3.24;100.00;98224.19;5050389;28;20065;-79
2021/12/10 08:55:44;;;;;;;8.80;2.30;;;5.00;99.70;;;3.24;100.00;98227.69;5050611;28;20518;-79
2021/12/10 08:58:13;;;;;;;10.80;2.22;;;5.00;99.60;;;3.23;100.00;98227.88;5046354;28;20763;-79
2021/12/10 09:00:47;;;;;;;12.05;2.55;;;5.00;99.80;;;3.26;100.00;98224.81;5050261;28;20136;-79
2021/12/10 09:03:15;;;;;;;9.93;2.17;;;5.00;99.70;;;3.28;100.00;98228.13;5050018;28;20053;-79
2021/12/10 09:05:43;;;;;;;10.13;2.28;;;5.00;99.80;;;3.33;100.00;98231.06;5034006;28;20745;-79
2021/12/10 09:08:12;;;;;;;12.88;2.65;;;5.10;99.50;;;3.37;100.00;98231.50;5030845;28;20508;-79
2021/12/10 09:10:42;;;;;;;7.07;2.15;;;5.10;99.40;;;3.40;100.00;98240.00;5030218;28;20038;-79
2021/12/10 09:13:14;;;;;;;10.45;2.50;;;5.10;99.30;;;3.45;100.00;98229.50;5029813;28;20049;-79
2021/12/10 09:15:46;;;;;;;7.40;2.20;;;5.10;99.30;;;3.48;99.40;98228.28;5030099;28;20136;-79
2021/12/10 09:18:14;;;;;;;7.07;1.80;;;5.10;99.10;;;3.51;99.09;98228.72;5042874;28;20037;-79
2021/12/10 09:20:45;;;;;;;6.70;2.38;;;5.20;98.90;;;3.53;99.11;98221.28;5050055;28;20110;-79
2021/12/10 09:23:16;;;;;;;8.48;1.90;;;5.20;98.60;;;3.55;98.40;98233.72;5029595;28;20053;-79
2021/12/10 09:25:45;;;;;;;6.63;2.30;;;5.20;98.50;;;3.59;98.05;98229.59;4992509;28;20502;-79
2021/12/10 09:28:13;;;;;;;10.60;2.08;;;5.20;98.10;;;3.61;98.17;98230.22;5039700;28;20095;-79
2021/12/10 09:30:52;;;;;;;9.68;1.88;;;5.20;98.20;;;3.63;98.88;98233.56;5041955;28;20045;-79
2021/12/10 09:33:19;;;;;;;12.82;2.40;;;5.20;98.10;;;3.64;98.17;98229.84;5024952;28;20092;-79
2021/12/10 09:35:47;;;;;;;8.98;2.00;;;5.20;98.20;;;3.65;98.02;98228.81;5029793;28;20058;-79
2021/12/10 09:38:16;;;;;;;9.00;2.50;;;5.20;98.30;;;3.66;96.81;98230.50;5022139;28;20038;-79
2021/12/10 09:40:49;;;;;;;7.28;1.65;;;5.30;97.70;;;3.66;96.36;98228.63;5019578;28;20457;-79
2021/12/10 09:43:19;;;;;;;7.95;1.70;;;5.30;97.50;;;3.68;96.53;98223.88;5020551;28;20041;-79
2021/12/10 09:45:51;;;;;;;7.25;1.65;;;5.30;97.60;;;3.69;96.26;98230.94;5032740;28;20059;-79
2021/12/10 09:48:21;;;;;;;8.52;2.13;;;5.30;97.20;;;3.74;97.01;98208.81;5028559;28;20042;-79
2021/12/10 09:50:54;;;;;;;8.88;2.08;;;5.30;97.40;;;3.75;95.76;98213.16;5033733;28;20611;-79
2021/12/10 09:53:22;;;;;;;9.30;2.40;;;5.30;97.10;;;3.78;96.23;98223.53;5023500;28;20056;-79
2021/12/10 09:55:50;;;;;;;6.82;1.80;;;5.30;97.30;;;3.81;96.05;98222.28;5032778;28;20046;-80
2021/12/10 09:58:19;;;;;;;9.98;2.08;;;5.40;96.60;;;3.82;95.40;98214.00;5036514;28;20041;-79
2021/12/10 10:00:52;;;;;;;11.68;2.30;;;5.40;96.80;;;3.82;96.07;98230.16;5028484;28;20095;-79
2021/12/10 10:03:24;;;;;;;7.38;1.85;;;5.40;96.80;;;3.86;95.57;98223.34;5027666;28;20084;-80
2021/12/10 10:05:52;;;;;;;7.53;2.00;;;5.40;96.20;;;3.87;94.12;98219.66;5028267;28;20076;-78
2021/12/10 10:08:25;;;;;;;9.02;2.10;;;5.40;96.10;;;3.88;93.47;98215.94;5042866;28;20120;-79
2021/12/10 10:10:57;;;;;;;5.72;1.80;;;5.40;96.00;;;3.91;94.58;98220.91;5046229;28;20441;-81
2021/12/10 10:13:31;;;;;;;10.25;1.80;;;5.40;96.00;;;3.93;95.02;98212.63;5015025;28;20045;-77
2021/12/10 10:16:00;;;;;;;7.80;2.03;;;5.40;96.10;;;3.96;95.08;98203.31;5026868;28;20053;-80
2021/12/10 10:18:31;;;;;;;9.82;2.00;;;5.50;96.20;;;3.98;93.90;98207.50;5033983;28;20061;-78
2021/12/10 10:21:11;;;;;;;9.75;2.08;;;5.50;96.20;;;4.00;94.68;98201.91;5046380;28;20389;-79
2021/12/10 10:23:41;;;;;;;8.38;2.22;;;5.50;95.90;;;3.99;94.37;98202.94;5024703;28;20053;-81
2021/12/10 10:26:19;;;;;;;8.85;1.85;;;5.50;96.10;;;4.02;92.62;98197.16;5028771;28;20099;-79
2021/12/10 10:28:48;;;;;;;9.40;2.13;;;5.50;95.30;;;4.05;93.68;98196.75;5046601;28;20048;-78
2021/12/10 10:31:23;;;;;;;7.97;2.00;;;5.50;95.40;;;4.04;92.13;98190.56;5048392;28;20057;-79
2021/12/10 10:33:55;;;;;;;10.70;2.70;;;5.50;95.30;;;4.05;92.32;98194.88;5038995;28;20046;-78
2021/12/10 10:36:27;;;;;;;11.32;2.60;;;5.50;95.20;;;4.05;92.63;98186.81;5028502;28;20034;-79
2021/12/10 10:38:59;;;;;;;10.52;1.65;;;5.60;95.10;;;4.09;92.70;98198.00;5029365;28;20053;-78
2021/12/10 10:41:31;;;;;;;7.47;2.05;;;5.60;95.30;;;4.10;93.38;98194.31;5029251;28;20076;-78